Time;durP1;ratioP1;P1;durP2;ratioP2;P2;SDS_P1;SDS_P2;PMS_P1;PMS_P2;Temp;Humidity;BMP_temperature;BMP_pressure;BME280_temperature;BME280_humidity;BME280_pressure;Samples;Min_cycle;Max_cycle;Signal;HPM_P1;HPM_P2
2022/07/05 00:01:26;;;;;;;2.20;2.10;;;15.00;99.90;;;;;;491831;241;29185;-69
2022/07/05 00:03:28;;;;;;;2.00;1.50;;;15.00;99.90;;;;;;491718;242;29312;-70
2022/07/05 00:05:28;;;;;;;2.00;1.90;;;15.00;99.90;;;;;;491803;242;29280;-69
2022/07/05 00:07:30;;;;;;;1.93;1.83;;;15.00;99.90;;;;;;491849;241;28764;-70
2022/07/05 00:09:31;;;;;;;1.77;1.67;;;15.00;99.90;;;;;;491835;241;28757;-69
2022/07/05 00:11:32;;;;;;;1.70;1.60;;;15.00;99.90;;;;;;491822;242;28776;-69
2022/07/05 00:13:33;;;;;;;1.83;1.73;;;15.00;99.90;;;;;;491819;241;28752;-71
2022/07/05 00:15:35;;;;;;;1.70;1.60;;;15.00;99.90;;;;;;491763;242;28740;-69
2022/07/05 00:17:36;;;;;;;1.70;1.60;;;15.00;99.90;;;;;;491825;241;28340;-69
2022/07/05 00:19:37;;;;;;;1.90;1.80;;;14.90;99.90;;;;;;491807;241;28494;-69
2022/07/05 00:21:38;;;;;;;2.00;1.77;;;14.90;99.90;;;;;;491804;241;28712;-69
2022/07/05 00:23:40;;;;;;;1.73;1.63;;;14.90;99.90;;;;;;491828;241;28749;-70
2022/07/05 00:25:41;;;;;;;1.90;1.80;;;14.80;99.90;;;;;;491820;241;29207;-69
2022/07/05 00:27:42;;;;;;;2.00;1.90;;;14.80;99.90;;;;;;491706;242;29332;-69
2022/07/05 00:29:44;;;;;;;1.80;1.70;;;14.70;99.90;;;;;;491831;241;29256;-69
2022/07/05 00:31:45;;;;;;;1.83;1.73;;;14.60;99.90;;;;;;491883;241;28701;-69
2022/07/05 00:33:46;;;;;;;1.90;1.80;;;14.60;99.90;;;;;;491871;241;28749;-70
2022/07/05 00:35:47;;;;;;;1.80;1.70;;;14.70;99.90;;;;;;491833;241;28824;-69
2022/07/05 00:37:49;;;;;;;1.90;1.80;;;14.60;99.90;;;;;;491827;241;28747;-70
2022/07/05 00:39:50;;;;;;;1.77;1.70;;;14.50;99.90;;;;;;491513;242;28811;-71
2022/07/05 00:41:51;;;;;;;1.80;1.70;;;14.50;99.90;;;;;;491859;241;28812;-69
2022/07/05 00:43:52;;;;;;;2.03;1.93;;;14.50;99.90;;;;;;491843;241;28347;-71
2022/07/05 00:45:54;;;;;;;2.23;2.13;;;14.50;99.90;;;;;;491813;242;28910;-68
2022/07/05 00:47:55;;;;;;;1.77;1.67;;;14.40;99.90;;;;;;491686;242;28444;-70
2022/07/05 00:49:56;;;;;;;2.10;2.00;;;14.40;99.90;;;;;;491843;241;30186;-68
2022/07/05 00:51:57;;;;;;;2.50;1.90;;;14.50;99.90;;;;;;491796;242;29290;-69
2022/07/05 00:53:59;;;;;;;2.13;2.03;;;14.40;99.90;;;;;;491788;241;28940;-70
2022/07/05 00:56:00;;;;;;;1.87;1.77;;;14.20;99.90;;;;;;491771;242;29178;-69
2022/07/05 00:58:01;;;;;;;2.00;1.90;;;14.10;99.90;;;;;;491697;242;28733;-69
2022/07/05 01:00:02;;;;;;;2.60;2.40;;;14.00;99.90;;;;;;491696;242;28453;-71
2022/07/05 01:02:04;;;;;;;1.97;1.87;;;13.90;99.90;;;;;;491624;242;28824;-68
2022/07/05 01:04:05;;;;;;;2.20;2.00;;;13.90;99.90;;;;;;491808;241;28426;-71
2022/07/05 01:06:06;;;;;;;2.10;2.00;;;13.90;99.90;;;;;;491853;241;28419;-69
2022/07/05 01:08:07;;;;;;;1.77;1.67;;;13.90;99.90;;;;;;491787;241;28454;-69
2022/07/05 01:10:09;;;;;;;2.00;1.90;;;13.90;99.90;;;;;;491840;242;28273;-68
2022/07/05 01:12:10;;;;;;;1.87;1.77;;;13.90;99.90;;;;;;491781;241;28341;-68
2022/07/05 01:14:11;;;;;;;2.13;2.03;;;13.90;99.90;;;;;;491834;242;28330;-71
2022/07/05 01:16:12;;;;;;;1.93;1.83;;;13.90;99.90;;;;;;491793;241;28906;-68
2022/07/05 01:18:14;;;;;;;1.70;1.70;;;13.90;99.90;;;;;;491842;242;29040;-69
2022/07/05 01:20:15;;;;;;;1.77;1.77;;;13.90;99.90;;;;;;491834;242;28665;-69
2022/07/05 01:22:17;;;;;;;1.83;1.83;;;13.90;99.90;;;;;;491797;241;28309;-69
2022/07/05 01:24:17;;;;;;;2.17;2.07;;;13.90;99.90;;;;;;491786;242;28435;-72
2022/07/05 01:26:19;;;;;;;2.20;2.10;;;13.80;99.90;;;;;;491783;242;28254;-69
2022/07/05 01:28:20;;;;;;;2.20;2.10;;;13.70;99.90;;;;;;491813;241;28546;-69
2022/07/05 01:30:21;;;;;;;2.10;2.00;;;13.70;99.90;;;;;;491654;242;28434;-69
2022/07/05 01:32:22;;;;;;;2.10;2.00;;;13.80;99.90;;;;;;491783;241;28299;-69
2022/07/05 01:34:24;;;;;;;2.30;2.20;;;13.70;99.90;;;;;;491643;242;28748;-71
2022/07/05 01:36:25;;;;;;;1.90;1.90;;;13.70;99.90;;;;;;491656;242;28311;-69
2022/07/05 01:38:26;;;;;;;2.00;1.80;;;13.70;99.90;;;;;;491773;241;28359;-69
2022/07/05 01:40:27;;;;;;;6.30;1.90;;;13.60;99.90;;;;;;491775;242;29571;-71
2022/07/05 01:42:29;;;;;;;1.90;1.80;;;13.40;99.90;;;;;;491817;241;29308;-69
2022/07/05 01:44:30;;;;;;;1.60;1.60;;;13.40;99.90;;;;;;491836;241;28720;-71
2022/07/05 01:46:36;;;;;;;1.90;1.80;;;13.40;99.90;;;;;;491696;242;28087;-68
2022/07/05 01:48:32;;;;;;;2.10;2.00;;;13.50;99.90;;;;;;491570;242;28404;-68
2022/07/05 01:50:34;;;;;;;1.70;1.70;;;13.50;99.90;;;;;;491762;242;28192;-69
2022/07/05 01:52:35;;;;;;;2.00;1.90;;;13.50;99.90;;;;;;491785;242;28094;-68
2022/07/05 01:54:36;;;;;;;1.87;1.77;;;13.60;99.90;;;;;;491861;241;28133;-71
2022/07/05 01:56:38;;;;;;;1.70;1.60;;;13.60;99.90;;;;;;491801;241;28094;-68
2022/07/05 01:58:40;;;;;;;1.90;1.80;;;;;;;;;;491803;241;28251;-71
2022/07/05 02:00:41;;;;;;;1.97;1.87;;;13.50;99.90;;;;;;491870;241;26373;-69
2022/07/05 02:02:42;;;;;;;2.00;1.90;;;13.50;99.90;;;;;;491847;241;28209;-70
2022/07/05 02:04:44;;;;;;;1.70;1.70;;;13.40;99.90;;;;;;491832;241;28288;-69
2022/07/05 02:06:48;;;;;;;1.53;1.53;;;13.40;99.90;;;;;;491813;241;28339;-69
2022/07/05 02:08:49;;;;;;;2.27;2.17;;;13.30;99.90;;;;;;491803;241;28844;-69
2022/07/05 02:10:51;;;;;;;2.13;2.03;;;;;;;;;;491784;237;28193;-70
2022/07/05 02:12:53;;;;;;;1.93;1.83;;;13.40;99.90;;;;;;494818;237;27144;-70
2022/07/05 02:14:54;;;;;;;2.10;2.00;;;13.40;99.90;;;;;;504075;236;28523;-69
2022/07/05 02:16:55;;;;;;;2.10;2.00;;;13.30;99.90;;;;;;503969;236;28551;-70
2022/07/05 02:18:56;;;;;;;2.10;2.00;;;13.10;99.90;;;;;;504112;236;28082;-69
2022/07/05 02:20:58;;;;;;;1.90;1.80;;;13.10;99.90;;;;;;504142;236;28114;-69
2022/07/05 02:22:59;;;;;;;2.10;2.00;;;13.00;99.90;;;;;;503978;236;28298;-70
2022/07/05 02:25:00;;;;;;;2.40;2.30;;;13.00;99.90;;;;;;504083;236;28180;-69
2022/07/05 02:27:01;;;;;;;2.30;2.20;;;13.10;99.90;;;;;;503834;236;28185;-68
2022/07/05 02:29:04;;;;;;;2.53;2.30;;;;;;;;;;504120;236;28297;-69
2022/07/05 02:31:05;;;;;;;2.10;2.00;;;13.00;99.90;;;;;;503958;236;27082;-69
2022/07/05 02:33:08;;;;;;;2.40;2.30;;;;;;;;;;504000;236;28167;-68
2022/07/05 02:35:09;;;;;;;2.20;2.10;;;13.00;99.90;;;;;;498674;236;26422;-72
2022/07/05 02:37:11;;;;;;;2.63;2.20;;;;;;;;;;492238;241;28145;-70
2022/07/05 02:39:13;;;;;;;2.20;2.10;;;12.90;99.90;;;;;;498590;238;27122;-68
2022/07/05 02:41:14;;;;;;;2.00;1.90;;;12.90;99.90;;;;;;498600;238;28785;-68
2022/07/05 02:43:15;;;;;;;1.87;1.80;;;12.90;99.90;;;;;;498665;238;28077;-71
2022/07/05 02:45:16;;;;;;;2.10;2.00;;;13.00;99.90;;;;;;498665;238;28242;-68
2022/07/05 02:47:18;;;;;;;2.20;2.10;;;13.00;99.90;;;;;;498643;238;28176;-69
2022/07/05 02:49:19;;;;;;;2.50;2.40;;;13.00;99.90;;;;;;498688;238;28228;-69
2022/07/05 02:51:20;;;;;;;2.00;1.90;;;12.90;99.90;;;;;;498651;238;28406;-69
2022/07/05 02:53:21;;;;;;;2.30;2.20;;;12.90;99.90;;;;;;498598;238;28293;-72
2022/07/05 02:55:23;;;;;;;4.00;1.80;;;12.80;99.90;;;;;;498699;238;28419;-71
2022/07/05 02:57:24;;;;;;;2.27;2.07;;;12.70;99.90;;;;;;498443;238;28920;-71
2022/07/05 02:59:25;;;;;;;2.20;1.90;;;12.80;99.90;;;;;;498566;238;28998;-69
2022/07/05 03:01:26;;;;;;;2.20;2.10;;;12.80;99.90;;;;;;498415;238;28776;-69
2022/07/05 03:03:29;;;;;;;2.10;2.00;;;;;;;;;;498690;238;28541;-69
2022/07/05 03:05:30;;;;;;;2.20;2.10;;;12.70;99.90;;;;;;498782;237;26949;-69
2022/07/05 03:07:31;;;;;;;2.00;1.90;;;12.70;99.90;;;;;;498725;238;29181;-72
2022/07/05 03:09:32;;;;;;;2.00;1.90;;;12.70;99.90;;;;;;498653;238;28852;-69
2022/07/05 03:11:34;;;;;;;1.90;1.80;;;12.70;99.90;;;;;;498645;238;28859;-70
2022/07/05 03:13:35;;;;;;;1.87;1.77;;;12.80;99.90;;;;;;483053;242;28967;-72
2022/07/05 03:15:36;;;;;;;2.00;1.90;;;12.70;99.90;;;;;;501700;237;28691;-70
2022/07/05 03:17:37;;;;;;;2.10;2.00;;;12.60;99.90;;;;;;501614;237;28694;-70
2022/07/05 03:19:39;;;;;;;2.07;1.87;;;12.50;99.90;;;;;;501426;236;27956;-69
2022/07/05 03:21:40;;;;;;;1.83;1.73;;;12.50;99.90;;;;;;501151;236;28790;-70
2022/07/05 03:23:41;;;;;;;1.87;1.77;;;12.60;99.90;;;;;;501605;237;27998;-68
2022/07/05 03:25:42;;;;;;;1.90;1.80;;;12.60;99.90;;;;;;501263;237;28504;-69
2022/07/05 03:27:44;;;;;;;2.43;2.03;;;12.70;99.90;;;;;;501546;237;28159;-71
2022/07/05 03:29:45;;;;;;;1.80;1.70;;;12.60;99.90;;;;;;501621;237;28360;-70
2022/07/05 03:31:46;;;;;;;1.90;1.80;;;12.60;99.90;;;;;;501737;237;28802;-70
2022/07/05 03:33:48;;;;;;;1.90;1.80;;;12.50;99.90;;;;;;501524;237;29207;-69
2022/07/05 03:35:49;;;;;;;2.20;2.03;;;12.50;99.90;;;;;;501683;237;28502;-69
2022/07/05 03:37:50;;;;;;;1.87;1.77;;;12.50;99.90;;;;;;501615;237;29184;-72
2022/07/05 03:39:53;;;;;;;1.77;1.70;;;;;;;;;;501719;237;28181;-70
2022/07/05 03:41:54;;;;;;;1.73;1.70;;;12.50;99.90;;;;;;501699;236;27066;-69
2022/07/05 03:43:55;;;;;;;2.07;1.90;;;12.50;99.90;;;;;;501708;237;28785;-69
2022/07/05 03:45:56;;;;;;;1.90;1.80;;;12.50;99.90;;;;;;501706;237;28695;-71
2022/07/05 03:47:57;;;;;;;2.13;2.03;;;12.50;99.90;;;;;;501732;237;28522;-69
2022/07/05 03:49:59;;;;;;;2.10;2.00;;;12.50;99.90;;;;;;501663;237;29271;-69
2022/07/05 03:52:00;;;;;;;2.00;1.90;;;12.50;99.90;;;;;;501545;237;28359;-68
2022/07/05 03:54:01;;;;;;;1.83;1.73;;;12.50;99.90;;;;;;501442;237;28304;-70
2022/07/05 03:56:04;;;;;;;1.80;1.70;;;;;;;;;;501586;237;28718;-69
2022/07/05 03:58:05;;;;;;;1.87;1.77;;;12.50;99.90;;;;;;501717;236;27361;-69
2022/07/05 04:00:06;;;;;;;1.90;1.80;;;12.60;99.90;;;;;;501741;237;29268;-69
2022/07/05 04:02:07;;;;;;;1.70;1.60;;;12.60;99.90;;;;;;501731;237;28708;-70
2022/07/05 04:04:09;;;;;;;1.60;1.60;;;12.60;99.90;;;;;;501735;237;28059;-70
2022/07/05 04:06:10;;;;;;;1.67;1.60;;;12.50;99.90;;;;;;501695;237;27997;-70
2022/07/05 04:08:11;;;;;;;1.80;1.70;;;12.50;99.90;;;;;;501729;237;28289;-70
2022/07/05 04:10:12;;;;;;;1.70;1.60;;;12.60;99.90;;;;;;501714;237;28686;-70
2022/07/05 04:12:14;;;;;;;2.00;1.80;;;12.60;99.90;;;;;;501720;237;28774;-70
2022/07/05 04:14:15;;;;;;;2.40;1.80;;;12.60;99.90;;;;;;501732;237;28467;-71
2022/07/05 04:16:16;;;;;;;1.80;1.70;;;12.60;99.90;;;;;;501691;237;28369;-67
2022/07/05 04:18:17;;;;;;;1.73;1.63;;;12.60;99.90;;;;;;501723;237;28710;-68
2022/07/05 04:20:20;;;;;;;1.57;1.50;;;12.70;99.90;;;;;;501718;237;29165;-69
2022/07/05 04:22:20;;;;;;;1.77;1.67;;;12.70;99.90;;;;;;501585;237;28653;-69
2022/07/05 04:24:21;;;;;;;1.87;1.77;;;12.70;99.90;;;;;;501760;237;28690;-72
2022/07/05 04:26:22;;;;;;;1.80;1.60;;;12.70;99.90;;;;;;501601;237;28315;-70
2022/07/05 04:28:24;;;;;;;1.70;1.70;;;12.80;99.90;;;;;;501697;237;28421;-71
2022/07/05 04:30:25;;;;;;;1.60;1.60;;;12.90;99.90;;;;;;501744;237;27927;-70
2022/07/05 04:32:26;;;;;;;2.27;2.10;;;12.90;99.90;;;;;;501736;237;28147;-70
2022/07/05 04:34:27;;;;;;;2.03;1.93;;;12.90;99.90;;;;;;501739;237;28208;-72
2022/07/05 04:36:29;;;;;;;1.93;1.83;;;12.90;99.90;;;;;;501696;237;28234;-69
2022/07/05 04:38:30;;;;;;;1.77;1.67;;;12.90;99.90;;;;;;501725;237;28204;-70
2022/07/05 04:40:31;;;;;;;1.80;1.70;;;13.10;99.90;;;;;;501712;237;28045;-70
2022/07/05 04:42:32;;;;;;;1.83;1.73;;;13.10;99.90;;;;;;501726;237;28226;-70
2022/07/05 04:44:34;;;;;;;1.90;1.80;;;13.20;99.90;;;;;;501731;237;28685;-71
2022/07/05 04:46:35;;;;;;;1.80;1.70;;;13.20;99.90;;;;;;495296;237;28796;-69
2022/07/05 04:48:36;;;;;;;1.83;1.73;;;13.20;99.90;;;;;;492572;241;28716;-69
2022/07/05 04:50:38;;;;;;;1.73;1.63;;;13.20;99.90;;;;;;495022;240;28860;-69
2022/07/05 04:52:40;;;;;;;2.00;1.90;;;;;;;;;;494916;240;28270;-70
2022/07/05 04:54:41;;;;;;;1.80;1.70;;;13.20;99.90;;;;;;495024;240;26371;-70
2022/07/05 04:56:42;;;;;;;2.07;1.90;;;13.30;99.90;;;;;;495019;240;28387;-72
2022/07/05 04:58:44;;;;;;;1.90;1.90;;;13.40;99.90;;;;;;495005;240;29332;-70
2022/07/05 05:00:45;;;;;;;2.07;1.97;;;13.50;99.90;;;;;;494990;240;28507;-70
2022/07/05 05:02:46;;;;;;;1.93;1.83;;;13.50;99.90;;;;;;495017;240;28564;-72
2022/07/05 05:04:47;;;;;;;2.23;2.13;;;13.60;99.90;;;;;;494973;240;28135;-69
2022/07/05 05:06:49;;;;;;;2.13;2.07;;;13.60;99.90;;;;;;494876;240;28417;-69
2022/07/05 05:08:50;;;;;;;2.40;2.30;;;13.60;99.90;;;;;;494973;240;28285;-70
2022/07/05 05:10:51;;;;;;;2.23;2.03;;;13.60;99.90;;;;;;495009;240;28362;-69
2022/07/05 05:12:52;;;;;;;2.30;2.20;;;13.60;99.90;;;;;;495018;240;28197;-72
2022/07/05 05:14:54;;;;;;;2.03;1.93;;;13.60;99.90;;;;;;494972;240;28102;-70
2022/07/05 05:16:55;;;;;;;2.10;2.00;;;13.70;99.90;;;;;;494983;240;28070;-69
2022/07/05 05:18:56;;;;;;;2.37;2.00;;;13.70;99.90;;;;;;494905;240;28358;-70
2022/07/05 05:20:57;;;;;;;2.03;2.00;;;13.80;99.90;;;;;;494982;240;28171;-69
2022/07/05 05:22:59;;;;;;;2.40;2.30;;;13.80;99.90;;;;;;494996;240;28772;-70
2022/07/05 05:25:00;;;;;;;2.20;2.10;;;13.90;99.90;;;;;;495004;240;28748;-69
2022/07/05 05:27:01;;;;;;;2.10;2.00;;;14.00;99.90;;;;;;494901;240;28870;-70
2022/07/05 05:29:03;;;;;;;2.30;2.20;;;14.10;99.90;;;;;;494911;240;28760;-70
2022/07/05 05:31:04;;;;;;;2.30;2.20;;;14.20;99.90;;;;;;494924;240;28299;-70
2022/07/05 05:33:05;;;;;;;1.90;1.80;;;14.20;99.90;;;;;;495024;240;28395;-71
2022/07/05 05:35:06;;;;;;;2.10;2.00;;;14.30;99.90;;;;;;495019;240;28543;-69
2022/07/05 05:37:08;;;;;;;1.90;1.80;;;14.40;99.90;;;;;;495009;240;28439;-71
2022/07/05 05:39:09;;;;;;;1.83;1.80;;;14.40;99.90;;;;;;495010;240;28315;-69
2022/07/05 05:41:10;;;;;;;2.27;1.77;;;14.50;99.90;;;;;;494961;240;28291;-69
2022/07/05 05:43:11;;;;;;;2.03;1.93;;;14.60;99.90;;;;;;494866;240;28477;-71
2022/07/05 05:45:12;;;;;;;2.50;2.40;;;14.70;99.90;;;;;;494930;240;28250;-69
2022/07/05 05:47:14;;;;;;;2.10;2.00;;;14.70;99.90;;;;;;495024;240;29239;-70
2022/07/05 05:49:15;;;;;;;2.23;2.13;;;14.80;99.90;;;;;;494996;240;29338;-69
2022/07/05 05:51:16;;;;;;;2.10;2.00;;;14.90;99.90;;;;;;495000;240;29707;-70
2022/07/05 05:53:17;;;;;;;1.90;1.80;;;14.90;99.90;;;;;;495032;240;28764;-71
2022/07/05 05:55:19;;;;;;;1.80;1.80;;;15.00;99.90;;;;;;495057;240;28658;-69
2022/07/05 05:57:20;;;;;;;2.00;1.90;;;15.10;99.90;;;;;;495032;240;28467;-70
2022/07/05 05:59:21;;;;;;;2.20;2.03;;;15.10;99.90;;;;;;495006;240;28776;-69
2022/07/05 06:01:22;;;;;;;1.70;1.70;;;15.10;99.90;;;;;;495012;240;28389;-70
2022/07/05 06:03:24;;;;;;;1.70;1.70;;;15.20;99.90;;;;;;494924;240;28376;-71
2022/07/05 06:05:25;;;;;;;2.20;2.10;;;15.30;99.90;;;;;;495000;240;28678;-69
2022/07/05 06:07:26;;;;;;;2.07;1.90;;;15.40;99.90;;;;;;495002;240;28705;-70
2022/07/05 06:09:27;;;;;;;1.80;1.70;;;15.50;99.90;;;;;;494984;240;28771;-69
2022/07/05 06:11:29;;;;;;;2.03;1.93;;;15.50;99.90;;;;;;495039;240;29213;-70
2022/07/05 06:13:30;;;;;;;2.17;2.07;;;15.60;99.90;;;;;;494994;240;29188;-70
2022/07/05 06:15:31;;;;;;;2.20;2.10;;;15.70;99.90;;;;;;495005;240;29199;-70
2022/07/05 06:17:32;;;;;;;2.10;2.00;;;15.80;99.90;;;;;;495010;240;29255;-70
2022/07/05 06:19:34;;;;;;;2.00;1.90;;;15.90;99.90;;;;;;494972;240;28701;-73
2022/07/05 06:21:35;;;;;;;2.30;2.10;;;15.90;99.90;;;;;;494988;240;28657;-69
2022/07/05 06:23:36;;;;;;;2.97;2.27;;;16.00;99.90;;;;;;495000;240;28709;-70
2022/07/05 06:25:37;;;;;;;2.50;2.30;;;16.10;99.90;;;;;;495029;240;28769;-69
2022/07/05 06:27:39;;;;;;;2.37;2.17;;;16.20;99.90;;;;;;494982;240;28694;-70
2022/07/05 06:29:40;;;;;;;2.00;1.90;;;16.30;99.90;;;;;;495037;240;29045;-73
2022/07/05 06:31:41;;;;;;;2.20;2.10;;;16.40;99.90;;;;;;494992;240;28736;-70
2022/07/05 06:33:42;;;;;;;2.77;2.57;;;16.50;99.90;;;;;;495006;240;28696;-70
2022/07/05 06:35:44;;;;;;;2.00;1.90;;;16.60;99.90;;;;;;495024;240;29298;-70
2022/07/05 06:37:45;;;;;;;2.40;2.20;;;16.70;99.90;;;;;;495050;240;29192;-70
2022/07/05 06:39:46;;;;;;;2.10;2.00;;;16.80;99.90;;;;;;495070;240;29346;-73
2022/07/05 06:41:47;;;;;;;2.53;1.93;;;16.90;99.90;;;;;;495040;240;29271;-70
2022/07/05 06:43:49;;;;;;;2.13;2.03;;;16.90;99.90;;;;;;495040;240;28689;-71
2022/07/05 06:45:51;;;;;;;2.20;2.10;;;17.00;99.90;;;;;;495054;240;28709;-70
2022/07/05 06:47:51;;;;;;;2.20;2.00;;;17.40;99.90;;;;;;494992;240;28764;-70
2022/07/05 06:49:52;;;;;;;2.27;2.07;;;17.70;99.90;;;;;;495044;240;28721;-74
2022/07/05 06:51:54;;;;;;;3.97;2.30;;;17.70;99.90;;;;;;495013;240;28709;-70
2022/07/05 06:53:55;;;;;;;2.20;2.10;;;17.70;99.90;;;;;;495061;240;28824;-70
2022/07/05 06:55:56;;;;;;;2.63;2.50;;;17.80;99.90;;;;;;495054;240;28782;-69
2022/07/05 06:57:58;;;;;;;3.10;2.40;;;17.90;99.90;;;;;;495048;240;28718;-70
2022/07/05 06:59:59;;;;;;;3.17;2.30;;;17.90;99.90;;;;;;495033;240;29164;-70
2022/07/05 07:02:00;;;;;;;2.30;2.20;;;17.90;99.90;;;;;;495053;240;29213;-70
2022/07/05 07:04:01;;;;;;;2.50;2.30;;;17.90;99.90;;;;;;495075;240;29265;-70
2022/07/05 07:06:03;;;;;;;2.63;2.50;;;18.00;99.90;;;;;;495053;240;29928;-70
2022/07/05 07:10:23;;;;;;;2.67;2.30;;;18.10;99.90;;;;;;495030;240;28730;-70
2022/07/05 07:12:25;;;;;;;2.93;2.60;;;18.20;99.90;;;;;;494952;240;28749;-69
2022/07/05 07:14:26;;;;;;;2.40;2.20;;;18.20;99.90;;;;;;495067;240;28663;-70
2022/07/05 07:16:27;;;;;;;2.50;2.40;;;18.20;99.90;;;;;;495039;240;28721;-72
2022/07/05 07:18:29;;;;;;;2.50;2.40;;;18.20;99.90;;;;;;495058;240;28659;-70
2022/07/05 07:20:30;;;;;;;2.13;2.03;;;18.30;99.90;;;;;;495037;240;28704;-70
2022/07/05 07:22:31;;;;;;;3.67;2.40;;;18.40;99.90;;;;;;495059;240;28784;-70
2022/07/05 07:24:32;;;;;;;2.60;2.50;;;18.40;99.90;;;;;;495062;240;28730;-70
2022/07/05 07:27:02;;;;;;;2.30;2.20;;;18.40;99.90;;;;;;495039;240;28725;-72
2022/07/05 07:28:35;;;;;;;2.93;2.23;;;18.50;99.90;;;;;;493319;240;29121;-70
2022/07/05 07:30:36;;;;;;;2.90;2.57;;;18.50;99.90;;;;;;495049;240;29203;-70
2022/07/05 07:32:37;;;;;;;2.20;1.97;;;18.60;99.90;;;;;;495018;240;29377;-70
2022/07/05 07:34:39;;;;;;;2.00;1.90;;;18.90;99.90;;;;;;495047;240;28749;-70
2022/07/05 07:36:40;;;;;;;2.67;2.00;;;18.80;99.90;;;;;;495070;240;28697;-72
2022/07/05 07:38:41;;;;;;;2.00;1.90;;;18.80;99.90;;;;;;494934;240;28659;-70
2022/07/05 07:40:42;;;;;;;2.00;1.80;;;18.80;99.90;;;;;;495056;240;28705;-71
2022/07/05 07:42:43;;;;;;;2.20;1.90;;;19.00;99.90;;;;;;495039;240;29180;-71
2022/07/05 07:44:45;;;;;;;2.40;2.20;;;19.00;99.90;;;;;;495007;240;28744;-70
2022/07/05 07:46:46;;;;;;;3.67;2.20;;;19.00;99.90;;;;;;495020;240;28701;-71
2022/07/05 07:48:47;;;;;;;2.50;2.30;;;19.20;99.90;;;;;;495007;240;28742;-71
2022/07/05 07:50:48;;;;;;;4.70;2.20;;;19.40;99.90;;;;;;494983;240;28739;-69
2022/07/05 07:52:50;;;;;;;2.80;2.60;;;19.30;99.90;;;;;;494854;240;29785;-73
2022/07/05 07:54:51;;;;;;;2.40;2.20;;;19.50;99.90;;;;;;494963;240;30135;-70
2022/07/05 07:56:52;;;;;;;2.63;2.43;;;19.60;99.90;;;;;;495010;240;29194;-70
2022/07/05 07:58:53;;;;;;;3.00;2.50;;;19.50;99.90;;;;;;495013;240;29298;-70
2022/07/05 08:00:55;;;;;;;2.20;2.00;;;19.40;99.90;;;;;;494930;240;28710;-71
2022/07/05 08:02:56;;;;;;;2.00;1.90;;;19.30;99.90;;;;;;495013;240;28705;-73
2022/07/05 08:04:58;;;;;;;2.10;2.00;;;19.40;99.90;;;;;;495042;240;28661;-70
2022/07/05 08:06:58;;;;;;;1.90;1.80;;;19.30;99.90;;;;;;494962;240;28705;-72
2022/07/05 08:09:00;;;;;;;2.40;1.80;;;19.70;99.90;;;;;;495018;240;28768;-70
2022/07/05 08:11:01;;;;;;;3.63;1.80;;;20.10;99.90;;;;;;495031;240;28792;-71
2022/07/05 08:13:02;;;;;;;1.73;1.67;;;20.20;99.90;;;;;;494984;240;29043;-74
2022/07/05 08:15:03;;;;;;;1.90;1.80;;;19.90;99.90;;;;;;495004;240;28808;-71
2022/07/05 08:17:08;;;;;;;1.77;1.67;;;19.70;99.90;;;;;;494883;240;28799;-71
2022/07/05 08:21:32;;;;;;;1.90;1.80;;;19.80;99.90;;;;;;494945;240;28713;-70
2022/07/05 08:23:34;;;;;;;1.70;1.60;;;19.90;99.90;;;;;;494983;240;28795;-70
2022/07/05 08:25:35;;;;;;;2.03;1.93;;;19.90;99.90;;;;;;495031;240;28705;-73
2022/07/05 08:27:36;;;;;;;2.50;1.70;;;19.80;99.90;;;;;;494929;240;29124;-70
2022/07/05 08:29:37;;;;;;;1.80;1.70;;;19.70;99.90;;;;;;494902;240;29210;-70
2022/07/05 08:31:38;;;;;;;3.63;1.87;;;19.80;99.90;;;;;;495042;240;29230;-70
2022/07/05 08:33:40;;;;;;;1.90;1.80;;;19.80;99.90;;;;;;494993;240;28734;-71
2022/07/05 08:35:41;;;;;;;1.70;1.60;;;20.00;99.90;;;;;;494996;240;28685;-74
2022/07/05 08:37:42;;;;;;;1.93;1.83;;;20.10;99.90;;;;;;494917;240;28760;-70
2022/07/05 08:39:43;;;;;;;2.70;1.80;;;20.10;99.90;;;;;;494992;240;28713;-70
2022/07/05 08:41:45;;;;;;;1.70;1.60;;;20.30;99.90;;;;;;495008;240;28768;-70
2022/07/05 08:43:46;;;;;;;1.80;1.70;;;20.30;99.90;;;;;;494774;240;28673;-71
2022/07/05 08:45:47;;;;;;;3.00;1.70;;;20.20;99.90;;;;;;494843;240;28721;-72
2022/07/05 08:47:48;;;;;;;2.07;1.90;;;20.20;99.90;;;;;;494819;240;28717;-71
2022/07/05 08:49:50;;;;;;;2.40;1.90;;;20.30;99.90;;;;;;494747;240;28780;-70
2022/07/05 08:51:51;;;;;;;1.90;1.80;;;20.30;99.90;;;;;;494771;240;29266;-70
2022/07/05 08:53:52;;;;;;;3.43;2.00;;;20.30;99.90;;;;;;494804;240;29233;-72
2022/07/05 08:55:53;;;;;;;1.93;1.83;;;20.20;99.90;;;;;;494807;240;29227;-73
2022/07/05 08:57:55;;;;;;;2.00;1.90;;;20.20;99.90;;;;;;494605;240;29977;-70
2022/07/05 08:59:56;;;;;;;1.80;1.70;;;20.50;99.90;;;;;;494864;240;28775;-70
2022/07/05 09:01:57;;;;;;;1.90;1.80;;;20.50;99.90;;;;;;494747;240;28756;-71
2022/07/05 09:03:58;;;;;;;1.87;1.77;;;20.70;99.90;;;;;;494764;240;28717;-70
2022/07/05 09:06:00;;;;;;;1.60;1.50;;;20.60;99.90;;;;;;494911;240;28799;-73
2022/07/05 09:08:01;;;;;;;3.03;1.50;;;20.60;99.90;;;;;;494989;240;28665;-70
2022/07/05 09:10:02;;;;;;;1.50;1.40;;;20.60;99.90;;;;;;494976;240;28707;-70
2022/07/05 09:12:03;;;;;;;3.33;1.80;;;20.50;99.90;;;;;;495023;240;28782;-73
2022/07/05 09:14:05;;;;;;;1.80;1.70;;;20.60;99.90;;;;;;494807;240;28743;-70
2022/07/05 09:16:06;;;;;;;1.50;1.40;;;20.70;99.90;;;;;;494999;240;29208;-71
2022/07/05 09:18:07;;;;;;;2.07;1.50;;;20.60;99.90;;;;;;494998;240;29119;-70
2022/07/05 09:20:09;;;;;;;1.93;1.83;;;20.60;99.90;;;;;;494902;240;28682;-71
2022/07/05 09:22:10;;;;;;;1.67;1.57;;;20.70;99.90;;;;;;494987;240;28692;-74
2022/07/05 09:24:11;;;;;;;1.70;1.60;;;20.90;99.90;;;;;;495014;240;28652;-70
2022/07/05 09:26:12;;;;;;;1.80;1.50;;;20.80;99.90;;;;;;494970;240;28765;-71
2022/07/05 09:28:14;;;;;;;2.00;1.53;;;20.70;99.90;;;;;;494899;240;28795;-69
2022/07/05 09:30:15;;;;;;;1.80;1.70;;;20.70;99.90;;;;;;494958;240;28666;-71
2022/07/05 09:32:16;;;;;;;1.43;1.40;;;20.80;99.90;;;;;;494974;240;28700;-71
2022/07/05 09:34:17;;;;;;;1.57;1.47;;;21.10;99.90;;;;;;494971;240;28650;-70
2022/07/05 09:36:19;;;;;;;1.70;1.60;;;21.50;99.90;;;;;;494938;240;28728;-71
2022/07/05 09:38:20;;;;;;;1.83;1.67;;;21.50;99.90;;;;;;495000;236;30125;-70
2022/07/05 09:40:21;;;;;;;1.47;1.43;;;21.60;99.90;;;;;;495011;240;29272;-70
2022/07/05 09:42:25;;;;;;;1.73;1.63;;;21.50;99.90;;;;;;494959;240;29254;-71
2022/07/05 09:44:24;;;;;;;4.17;1.30;;;21.50;99.90;;;;;;494771;240;28713;-70
2022/07/05 09:46:25;;;;;;;3.03;1.50;;;21.60;99.90;;;;;;494913;240;28769;-71
2022/07/05 09:48:26;;;;;;;1.50;1.40;;;21.80;99.90;;;;;;494945;240;28729;-70
2022/07/05 09:50:27;;;;;;;3.80;1.70;;;21.70;99.90;;;;;;494967;240;28766;-71
2022/07/05 09:52:29;;;;;;;1.70;1.60;;;21.60;99.90;;;;;;494998;240;28706;-72
2022/07/05 09:54:30;;;;;;;1.67;1.57;;;21.50;99.90;;;;;;494941;240;28692;-71
2022/07/05 09:56:31;;;;;;;1.93;1.77;;;21.50;99.90;;;;;;494858;240;28700;-71
2022/07/05 09:58:32;;;;;;;1.83;1.73;;;21.50;99.90;;;;;;494899;240;28708;-76
2022/07/05 10:00:34;;;;;;;1.77;1.67;;;21.50;99.90;;;;;;494987;240;28705;-71
2022/07/05 10:02:35;;;;;;;1.80;1.70;;;21.60;99.90;;;;;;494735;240;29236;-71
2022/07/05 10:04:36;;;;;;;2.10;1.77;;;21.60;99.90;;;;;;494937;240;29151;-70
2022/07/05 10:06:37;;;;;;;1.60;1.50;;;21.70;99.90;;;;;;494985;240;29302;-70
2022/07/05 10:08:39;;;;;;;2.03;1.67;;;21.80;99.90;;;;;;494939;240;28730;-74
2022/07/05 10:10:40;;;;;;;1.60;1.50;;;22.00;99.90;;;;;;494945;240;28669;-70
2022/07/05 10:12:41;;;;;;;1.30;1.30;;;22.20;99.90;;;;;;494974;240;28705;-70
2022/07/05 10:14:42;;;;;;;2.13;1.93;;;22.30;99.90;;;;;;495005;240;28733;-70
2022/07/05 10:16:44;;;;;;;1.70;1.60;;;22.20;99.90;;;;;;494665;240;28772;-70
2022/07/05 10:18:46;;;;;;;1.83;1.73;;;21.90;99.90;;;;;;495005;240;28701;-74
2022/07/05 10:20:46;;;;;;;2.17;2.00;;;21.60;99.90;;;;;;494929;240;29066;-70
2022/07/05 10:22:47;;;;;;;2.63;1.50;;;21.30;99.90;;;;;;495030;240;28701;-71
2022/07/05 10:24:49;;;;;;;1.90;1.80;;;21.30;99.90;;;;;;495036;240;28765;-70
2022/07/05 10:26:50;;;;;;;1.67;1.57;;;21.30;99.90;;;;;;494975;240;29232;-70
2022/07/05 10:28:51;;;;;;;1.63;1.50;;;21.20;99.90;;;;;;495023;240;29232;-75
2022/07/05 10:30:54;;;;;;;2.00;1.80;;;21.40;99.90;;;;;;495030;240;29146;-72
2022/07/05 10:32:54;;;;;;;1.83;1.50;;;21.40;99.90;;;;;;494953;240;29203;-71
2022/07/05 10:34:55;;;;;;;1.67;1.57;;;21.60;99.90;;;;;;495030;236;28745;-70
2022/07/05 10:36:56;;;;;;;1.50;1.50;;;21.90;99.90;;;;;;494991;240;28775;-71
2022/07/05 10:38:57;;;;;;;1.40;1.40;;;22.20;99.90;;;;;;494668;240;28702;-74